King City, Canada
Current Conditions -  °F | °C
As of 6:00 AM on Saturday 25 Oct 2014 (Local Time) from CYKZ Reporting Station
Scattered Clouds Scattered Clouds  
Wind Chill: 50°   Ceiling: Unl
Heat Index: 50°   Visibility: 11mi
Dew Point: 43°   Wind: 2mph
Humidity: 76%   Direction: 220°SW
Pressure: 29.8"   Gusts: NA
Location:  43.93°N, 79.53°W
Report Text: CYKZ 251000Z 22002KT 11SM FEW025 SCT220 10/06 A2980 RMK SC1CS2 DIST BR SE-SW SLP095
Loading
Personal Weather Stations






























Interactive Weather Map
Tropical Storm Tracking
New forecast layout! Learn more

10-Day Weather Forecast

Advertisements
Track Severe Weather on mobile